sensor_id;sensor_type;location;lat;lon;timestamp;pressure;altitude;pressure_sealevel;temperature;humidity
29247;BME280;16272;48.188;9.964;2023-02-23T00:00:13;95477.19;;;5.34;77.77
29247;BME280;16272;48.188;9.964;2023-02-23T00:02:46;95475.81;;;5.19;78.79
29247;BME280;16272;48.188;9.964;2023-02-23T00:05:12;95477.22;;;5.23;79.47
29247;BME280;16272;48.188;9.964;2023-02-23T00:07:38;95483.53;;;5.10;80.80
29247;BME280;16272;48.188;9.964;2023-02-23T00:10:03;95482.41;;;5.13;80.91
29247;BME280;16272;48.188;9.964;2023-02-23T00:12:30;95476.94;;;5.05;81.94
29247;BME280;16272;48.188;9.964;2023-02-23T00:14:55;95473.66;;;4.91;82.23
29247;BME280;16272;48.188;9.964;2023-02-23T00:17:20;95475.28;;;5.04;81.89
29247;BME280;16272;48.188;9.964;2023-02-23T00:19:48;95475.09;;;4.95;82.21
29247;BME280;16272;48.188;9.964;2023-02-23T00:22:13;95477.69;;;5.07;82.01
29247;BME280;16272;48.188;9.964;2023-02-23T00:24:39;95480.88;;;5.10;81.41
29247;BME280;16272;48.188;9.964;2023-02-23T00:27:06;95467.63;;;5.33;80.81
29247;BME280;16272;48.188;9.964;2023-02-23T00:29:31;95473.31;;;5.17;81.26
29247;BME280;16272;48.188;9.964;2023-02-23T00:32:03;95471.47;;;5.29;80.10
29247;BME280;16272;48.188;9.964;2023-02-23T00:34:28;95467.22;;;5.17;81.03
29247;BME280;16272;48.188;9.964;2023-02-23T00:36:54;95469.59;;;5.41;79.63
29247;BME280;16272;48.188;9.964;2023-02-23T00:39:20;95464.78;;;5.46;79.91
29247;BME280;16272;48.188;9.964;2023-02-23T00:41:48;95473.47;;;5.37;80.32
29247;BME280;16272;48.188;9.964;2023-02-23T00:44:13;95468.66;;;5.42;80.65
29247;BME280;16272;48.188;9.964;2023-02-23T00:46:40;95464.00;;;5.97;78.00
29247;BME280;16272;48.188;9.964;2023-02-23T00:49:06;95453.00;;;5.92;77.25
29247;BME280;16272;48.188;9.964;2023-02-23T00:51:31;95463.69;;;5.91;77.51
29247;BME280;16272;48.188;9.964;2023-02-23T00:53:58;95461.56;;;5.84;77.35
29247;BME280;16272;48.188;9.964;2023-02-23T00:56:25;95459.75;;;6.06;76.38
29247;BME280;16272;48.188;9.964;2023-02-23T00:58:51;95460.00;;;6.03;77.20
29247;BME280;16272;48.188;9.964;2023-02-23T01:01:17;95453.06;;;6.02;77.10
29247;BME280;16272;48.188;9.964;2023-02-23T01:03:43;95452.81;;;6.15;76.60
29247;BME280;16272;48.188;9.964;2023-02-23T01:06:14;95459.44;;;5.99;76.59
29247;BME280;16272;48.188;9.964;2023-02-23T01:08:45;95452.53;;;6.08;76.90
29247;BME280;16272;48.188;9.964;2023-02-23T01:11:16;95455.94;;;6.20;76.19
29247;BME280;16272;48.188;9.964;2023-02-23T01:13:43;95458.59;;;5.78;77.68
29247;BME280;16272;48.188;9.964;2023-02-23T01:16:12;95456.75;;;5.68;78.99
29247;BME280;16272;48.188;9.964;2023-02-23T01:18:39;95448.38;;;5.84;78.56
29247;BME280;16272;48.188;9.964;2023-02-23T01:21:13;95448.72;;;6.22;76.51
29247;BME280;16272;48.188;9.964;2023-02-23T01:23:39;95453.19;;;6.41;75.74
29247;BME280;16272;48.188;9.964;2023-02-23T01:26:04;95449.63;;;6.52;74.76
29247;BME280;16272;48.188;9.964;2023-02-23T01:28:29;95449.00;;;6.29;75.51
29247;BME280;16272;48.188;9.964;2023-02-23T01:30:55;95452.75;;;5.95;76.64
29247;BME280;16272;48.188;9.964;2023-02-23T01:33:20;95449.16;;;5.75;78.36
29247;BME280;16272;48.188;9.964;2023-02-23T01:35:56;95450.97;;;5.75;78.52
29247;BME280;16272;48.188;9.964;2023-02-23T01:38:21;95449.59;;;5.80;78.01
29247;BME280;16272;48.188;9.964;2023-02-23T01:40:47;95445.03;;;6.03;77.47
29247;BME280;16272;48.188;9.964;2023-02-23T01:43:17;95449.59;;;5.80;78.41
29247;BME280;16272;48.188;9.964;2023-02-23T01:45:45;95447.09;;;5.79;78.27
29247;BME280;16272;48.188;9.964;2023-02-23T01:48:20;95444.50;;;5.88;77.90
29247;BME280;16272;48.188;9.964;2023-02-23T01:50:57;95444.63;;;5.87;77.86
29247;BME280;16272;48.188;9.964;2023-02-23T01:53:26;95438.78;;;5.83;78.89
29247;BME280;16272;48.188;9.964;2023-02-23T01:55:56;95439.59;;;6.05;77.65
29247;BME280;16272;48.188;9.964;2023-02-23T01:58:25;95438.50;;;6.38;76.88
29247;BME280;16272;48.188;9.964;2023-02-23T02:00:55;95435.97;;;6.37;76.03
29247;BME280;16272;48.188;9.964;2023-02-23T02:03:33;95438.22;;;6.41;76.26
29247;BME280;16272;48.188;9.964;2023-02-23T02:06:01;95433.38;;;6.47;75.59
29247;BME280;16272;48.188;9.964;2023-02-23T02:08:31;95439.53;;;6.26;76.39
29247;BME280;16272;48.188;9.964;2023-02-23T02:10:57;95443.16;;;6.25;76.70
29247;BME280;16272;48.188;9.964;2023-02-23T02:13:27;95434.84;;;6.20;76.99
29247;BME280;16272;48.188;9.964;2023-02-23T02:19:20;95442.78;;;5.99;78.50
29247;BME280;16272;48.188;9.964;2023-02-23T02:22:02;95430.31;;;5.80;79.05
29247;BME280;16272;48.188;9.964;2023-02-23T02:39:25;95427.81;;;6.50;76.10
29247;BME280;16272;48.188;9.964;2023-02-23T02:42:07;95426.00;;;6.40;76.17
29247;BME280;16272;48.188;9.964;2023-02-23T02:47:23;95417.28;;;6.09;77.65
29247;BME280;16272;48.188;9.964;2023-02-23T02:50:16;95425.91;;;5.90;78.13
29247;BME280;16272;48.188;9.964;2023-02-23T02:52:49;95423.97;;;5.82;79.07
29247;BME280;16272;48.188;9.964;2023-02-23T02:55:24;95425.19;;;5.78;79.86
29247;BME280;16272;48.188;9.964;2023-02-23T02:57:52;95425.22;;;5.88;78.88
29247;BME280;16272;48.188;9.964;2023-02-23T03:00:28;95428.28;;;5.93;79.30
29247;BME280;16272;48.188;9.964;2023-02-23T03:03:39;95427.63;;;6.22;78.53
29247;BME280;16272;48.188;9.964;2023-02-23T03:06:33;95428.81;;;5.87;79.59
29247;BME280;16272;48.188;9.964;2023-02-23T03:09:43;95427.56;;;6.12;78.78
29247;BME280;16272;48.188;9.964;2023-02-23T03:12:44;95428.25;;;5.83;79.83
29247;BME280;16272;48.188;9.964;2023-02-23T03:15:46;95419.31;;;6.27;79.48
29247;BME280;16272;48.188;9.964;2023-02-23T03:21:49;95422.69;;;6.58;77.22
29247;BME280;16272;48.188;9.964;2023-02-23T03:24:44;95417.97;;;6.52;76.75
29247;BME280;16272;48.188;9.964;2023-02-23T03:27:43;95422.44;;;6.71;77.31
29247;BME280;16272;48.188;9.964;2023-02-23T03:33:33;95422.75;;;6.97;74.10
29247;BME280;16272;48.188;9.964;2023-02-23T03:36:24;95427.44;;;6.84;75.31
29247;BME280;16272;48.188;9.964;2023-02-23T03:39:25;95420.53;;;7.02;73.92
29247;BME280;16272;48.188;9.964;2023-02-23T03:42:15;95422.75;;;7.07;74.22
29247;BME280;16272;48.188;9.964;2023-02-23T03:45:05;95421.06;;;7.15;73.01
29247;BME280;16272;48.188;9.964;2023-02-23T03:47:52;95425.25;;;6.89;74.55
29247;BME280;16272;48.188;9.964;2023-02-23T03:50:41;95426.59;;;6.63;77.48
29247;BME280;16272;48.188;9.964;2023-02-23T03:53:45;95429.09;;;6.75;76.88
29247;BME280;16272;48.188;9.964;2023-02-23T03:56:34;95428.31;;;6.94;75.74
29247;BME280;16272;48.188;9.964;2023-02-23T03:59:21;95421.19;;;6.75;76.33
29247;BME280;16272;48.188;9.964;2023-02-23T04:02:07;95425.50;;;6.76;77.24
29247;BME280;16272;48.188;9.964;2023-02-23T04:04:54;95425.91;;;6.71;76.33
29247;BME280;16272;48.188;9.964;2023-02-23T04:07:40;95420.44;;;6.43;77.70
29247;BME280;16272;48.188;9.964;2023-02-23T04:10:27;95422.13;;;6.44;77.49
29247;BME280;16272;48.188;9.964;2023-02-23T04:13:16;95435.78;;;6.69;77.38
29247;BME280;16272;48.188;9.964;2023-02-23T04:15:57;95430.06;;;6.74;76.09
29247;BME280;16272;48.188;9.964;2023-02-23T04:18:29;95432.69;;;6.54;78.07
29247;BME280;16272;48.188;9.964;2023-02-23T04:20:55;95424.09;;;6.62;76.66
29247;BME280;16272;48.188;9.964;2023-02-23T04:23:22;95425.25;;;6.79;77.03
29247;BME280;16272;48.188;9.964;2023-02-23T04:25:51;95428.56;;;6.91;76.83
29247;BME280;16272;48.188;9.964;2023-02-23T04:28:17;95427.44;;;6.84;76.71
29247;BME280;16272;48.188;9.964;2023-02-23T04:30:42;95429.13;;;7.04;76.42
29247;BME280;16272;48.188;9.964;2023-02-23T04:33:08;95426.19;;;6.68;78.41
29247;BME280;16272;48.188;9.964;2023-02-23T04:35:34;95431.09;;;7.02;75.30
29247;BME280;16272;48.188;9.964;2023-02-23T04:37:59;95431.06;;;6.83;78.46
29247;BME280;16272;48.188;9.964;2023-02-23T04:40:25;95429.81;;;6.87;76.49
29247;BME280;16272;48.188;9.964;2023-02-23T04:42:51;95430.09;;;7.03;76.22
29247;BME280;16272;48.188;9.964;2023-02-23T04:45:17;95431.91;;;7.03;76.75
29247;BME280;16272;48.188;9.964;2023-02-23T04:47:43;95434.41;;;7.04;77.20
29247;BME280;16272;48.188;9.964;2023-02-23T04:50:09;95425.09;;;7.20;75.65
29247;BME280;16272;48.188;9.964;2023-02-23T04:52:35;95439.13;;;6.91;77.56
29247;BME280;16272;48.188;9.964;2023-02-23T04:55:03;95436.63;;;6.99;76.57
29247;BME280;16272;48.188;9.964;2023-02-23T04:57:28;95434.13;;;6.78;79.14
29247;BME280;16272;48.188;9.964;2023-02-23T04:59:53;95431.59;;;6.76;78.49
29247;BME280;16272;48.188;9.964;2023-02-23T05:02:19;95437.56;;;6.78;77.25
29247;BME280;16272;48.188;9.964;2023-02-23T05:04:44;95429.13;;;6.94;76.18
29247;BME280;16272;48.188;9.964;2023-02-23T05:07:09;95428.56;;;6.71;78.69
29247;BME280;16272;48.188;9.964;2023-02-23T05:09:35;95428.03;;;6.97;77.73
29247;BME280;16272;48.188;9.964;2023-02-23T05:12:00;95422.44;;;6.90;77.54
29247;BME280;16272;48.188;9.964;2023-02-23T05:14:26;95430.38;;;7.00;78.21
29247;BME280;16272;48.188;9.964;2023-02-23T05:16:51;95425.34;;;7.16;77.19
29247;BME280;16272;48.188;9.964;2023-02-23T05:19:17;95432.72;;;7.23;76.97
29247;BME280;16272;48.188;9.964;2023-02-23T05:21:43;95423.56;;;7.07;77.20
29247;BME280;16272;48.188;9.964;2023-02-23T05:24:09;95426.34;;;6.76;79.88
29247;BME280;16272;48.188;9.964;2023-02-23T05:26:34;95431.34;;;7.09;77.70
29247;BME280;16272;48.188;9.964;2023-02-23T05:28:59;95430.09;;;7.13;78.00
29247;BME280;16272;48.188;9.964;2023-02-23T05:31:26;95426.91;;;6.99;78.81
29247;BME280;16272;48.188;9.964;2023-02-23T05:33:51;95429.59;;;6.49;82.20
29247;BME280;16272;48.188;9.964;2023-02-23T05:36:19;95428.13;;;6.66;80.10
29247;BME280;16272;48.188;9.964;2023-02-23T05:38:45;95423.16;;;7.02;77.79
29247;BME280;16272;48.188;9.964;2023-02-23T05:41:14;95423.97;;;6.93;78.95
29247;BME280;16272;48.188;9.964;2023-02-23T05:43:40;95431.91;;;6.83;79.26
29247;BME280;16272;48.188;9.964;2023-02-23T05:46:07;95429.13;;;6.85;79.84
29247;BME280;16272;48.188;9.964;2023-02-23T05:48:32;95438.00;;;7.03;80.51
29247;BME280;16272;48.188;9.964;2023-02-23T05:51:06;95431.22;;;7.10;79.67
29247;BME280;16272;48.188;9.964;2023-02-23T05:53:32;95433.00;;;7.20;76.66
29247;BME280;16272;48.188;9.964;2023-02-23T05:55:58;95426.91;;;7.19;78.33
29247;BME280;16272;48.188;9.964;2023-02-23T05:58:23;95433.78;;;6.52;82.99
29247;BME280;16272;48.188;9.964;2023-02-23T06:00:49;95426.91;;;6.90;80.37
29247;BME280;16272;48.188;9.964;2023-02-23T06:03:14;95428.56;;;7.30;79.88
29247;BME280;16272;48.188;9.964;2023-02-23T06:05:40;95436.63;;;6.99;83.87
29247;BME280;16272;48.188;9.964;2023-02-23T06:08:06;95436.22;;;7.33;82.85
29247;BME280;16272;48.188;9.964;2023-02-23T06:10:31;95431.88;;;7.42;86.49
29247;BME280;16272;48.188;9.964;2023-02-23T06:12:57;95441.63;;;7.31;83.17
29247;BME280;16272;48.188;9.964;2023-02-23T06:15:22;95436.03;;;7.44;83.75
29247;BME280;16272;48.188;9.964;2023-02-23T06:17:47;95443.69;;;7.47;85.90
29247;BME280;16272;48.188;9.964;2023-02-23T06:20:12;95437.16;;;7.61;84.14
29247;BME280;16272;48.188;9.964;2023-02-23T06:22:38;95440.50;;;7.53;85.60
29247;BME280;16272;48.188;9.964;2023-02-23T06:25:04;95431.97;;;7.69;85.26
29247;BME280;16272;48.188;9.964;2023-02-23T06:27:32;95437.94;;;7.81;82.96
29247;BME280;16272;48.188;9.964;2023-02-23T06:29:58;95439.91;;;7.69;86.09
29247;BME280;16272;48.188;9.964;2023-02-23T06:32:23;95438.25;;;7.59;86.87
29247;BME280;16272;48.188;9.964;2023-02-23T06:34:49;95442.13;;;7.74;85.90
29247;BME280;16272;48.188;9.964;2023-02-23T06:37:14;95444.47;;;7.77;84.78
29247;BME280;16272;48.188;9.964;2023-02-23T06:39:39;95444.88;;;7.82;86.63
29247;BME280;16272;48.188;9.964;2023-02-23T06:42:05;95451.53;;;7.86;85.08
29247;BME280;16272;48.188;9.964;2023-02-23T06:44:30;95455.34;;;8.12;85.46
29247;BME280;16272;48.188;9.964;2023-02-23T06:46:59;95458.16;;;8.10;82.95
29247;BME280;16272;48.188;9.964;2023-02-23T06:49:24;95455.63;;;8.18;83.76
29247;BME280;16272;48.188;9.964;2023-02-23T06:51:49;95460.41;;;8.33;82.51
29247;BME280;16272;48.188;9.964;2023-02-23T06:54:15;95460.72;;;8.29;83.14
29247;BME280;16272;48.188;9.964;2023-02-23T06:56:40;95466.75;;;8.22;83.70
29247;BME280;16272;48.188;9.964;2023-02-23T06:59:05;95472.72;;;7.77;86.58
29247;BME280;16272;48.188;9.964;2023-02-23T07:01:31;95472.06;;;8.12;84.58
29247;BME280;16272;48.188;9.964;2023-02-23T07:03:58;95475.91;;;8.27;84.68
29247;BME280;16272;48.188;9.964;2023-02-23T07:06:23;95471.72;;;7.97;85.52
29247;BME280;16272;48.188;9.964;2023-02-23T07:08:48;95476.25;;;8.05;87.36
29247;BME280;16272;48.188;9.964;2023-02-23T07:11:14;95478.84;;;8.24;85.77
29247;BME280;16272;48.188;9.964;2023-02-23T07:13:40;95474.50;;;8.43;85.50
29247;BME280;16272;48.188;9.964;2023-02-23T07:16:06;95480.19;;;8.01;86.77
29247;BME280;16272;48.188;9.964;2023-02-23T07:18:32;95477.59;;;8.28;84.73
29247;BME280;16272;48.188;9.964;2023-02-23T07:20:57;95482.78;;;8.58;84.62
29247;BME280;16272;48.188;9.964;2023-02-23T07:23:23;95475.84;;;8.47;85.85
29247;BME280;16272;48.188;9.964;2023-02-23T07:25:49;95483.13;;;8.35;85.53
29247;BME280;16272;48.188;9.964;2023-02-23T07:28:15;95487.66;;;8.15;87.15
29247;BME280;16272;48.188;9.964;2023-02-23T07:30:40;95482.97;;;8.46;86.09
29247;BME280;16272;48.188;9.964;2023-02-23T07:33:05;95487.06;;;8.59;84.31
29247;BME280;16272;48.188;9.964;2023-02-23T07:35:31;95491.25;;;8.89;81.74
29247;BME280;16272;48.188;9.964;2023-02-23T07:37:56;95484.03;;;8.54;84.81
29247;BME280;16272;48.188;9.964;2023-02-23T07:40:21;95480.66;;;8.61;84.28
29247;BME280;16272;48.188;9.964;2023-02-23T07:42:47;95493.28;;;8.77;83.66
29247;BME280;16272;48.188;9.964;2023-02-23T07:45:12;95495.25;;;8.65;84.43
29247;BME280;16272;48.188;9.964;2023-02-23T07:47:37;95489.97;;;9.11;82.16
29247;BME280;16272;48.188;9.964;2023-02-23T07:50:04;95493.13;;;8.51;85.37
29247;BME280;16272;48.188;9.964;2023-02-23T07:52:34;95490.00;;;8.56;85.09
29247;BME280;16272;48.188;9.964;2023-02-23T07:55:00;95487.50;;;8.54;85.56
29247;BME280;16272;48.188;9.964;2023-02-23T07:57:25;95489.25;;;8.73;85.35
29247;BME280;16272;48.188;9.964;2023-02-23T07:59:50;95490.69;;;8.68;84.83
29247;BME280;16272;48.188;9.964;2023-02-23T08:02:16;95489.38;;;8.72;84.29
29247;BME280;16272;48.188;9.964;2023-02-23T08:04:41;95499.81;;;9.01;84.35
29247;BME280;16272;48.188;9.964;2023-02-23T08:07:08;95491.59;;;8.76;85.42
29247;BME280;16272;48.188;9.964;2023-02-23T08:09:33;95493.44;;;8.94;85.10
29247;BME280;16272;48.188;9.964;2023-02-23T08:12:00;95496.41;;;9.09;84.45
29247;BME280;16272;48.188;9.964;2023-02-23T08:14:25;95494.75;;;9.08;84.01
29247;BME280;16272;48.188;9.964;2023-02-23T08:16:51;95500.50;;;9.21;84.72
29247;BME280;16272;48.188;9.964;2023-02-23T08:19:16;95497.09;;;9.11;85.31
29247;BME280;16272;48.188;9.964;2023-02-23T08:21:42;95505.22;;;9.27;85.81
29247;BME280;16272;48.188;9.964;2023-02-23T08:24:08;95506.47;;;9.59;82.42
29247;BME280;16272;48.188;9.964;2023-02-23T08:26:35;95506.34;;;9.43;84.26
29247;BME280;16272;48.188;9.964;2023-02-23T08:29:03;95506.09;;;9.18;82.74
29247;BME280;16272;48.188;9.964;2023-02-23T08:31:28;95503.94;;;9.31;83.79
29247;BME280;16272;48.188;9.964;2023-02-23T08:33:54;95502.41;;;9.47;83.32
29247;BME280;16272;48.188;9.964;2023-02-23T08:36:20;95505.63;;;9.05;84.07
29247;BME280;16272;48.188;9.964;2023-02-23T08:38:46;95502.47;;;9.37;82.81
29247;BME280;16272;48.188;9.964;2023-02-23T08:41:12;95502.91;;;9.14;83.90
29247;BME280;16272;48.188;9.964;2023-02-23T08:43:40;95504.28;;;9.00;83.15
29247;BME280;16272;48.188;9.964;2023-02-23T08:46:06;95505.34;;;9.62;82.09
29247;BME280;16272;48.188;9.964;2023-02-23T08:48:31;95506.41;;;9.51;82.96
29247;BME280;16272;48.188;9.964;2023-02-23T08:50:58;95501.88;;;9.61;82.68
29247;BME280;16272;48.188;9.964;2023-02-23T08:53:24;95511.25;;;9.73;81.90
29247;BME280;16272;48.188;9.964;2023-02-23T08:55:58;95505.81;;;9.57;81.80
29247;BME280;16272;48.188;9.964;2023-02-23T08:58:25;95506.78;;;9.74;81.97
29247;BME280;16272;48.188;9.964;2023-02-23T09:00:50;95500.63;;;9.73;79.85
29247;BME280;16272;48.188;9.964;2023-02-23T09:03:16;95499.13;;;9.89;81.39
29247;BME280;16272;48.188;9.964;2023-02-23T09:05:41;95502.75;;;9.88;79.82
29247;BME280;16272;48.188;9.964;2023-02-23T09:08:08;95510.13;;;9.76;80.38
29247;BME280;16272;48.188;9.964;2023-02-23T09:10:33;95503.72;;;10.13;80.10
29247;BME280;16272;48.188;9.964;2023-02-23T09:12:59;95503.56;;;10.33;79.65
29247;BME280;16272;48.188;9.964;2023-02-23T09:15:25;95509.50;;;9.82;80.59
29247;BME280;16272;48.188;9.964;2023-02-23T09:17:50;95505.28;;;9.98;80.04
29247;BME280;16272;48.188;9.964;2023-02-23T09:20:16;95512.53;;;10.14;79.07
29247;BME280;16272;48.188;9.964;2023-02-23T09:22:42;95520.44;;;9.61;81.45
29247;BME280;16272;48.188;9.964;2023-02-23T09:25:16;95515.75;;;9.99;81.16
29247;BME280;16272;48.188;9.964;2023-02-23T09:27:54;95503.16;;;10.01;80.04
29247;BME280;16272;48.188;9.964;2023-02-23T09:30:24;95509.25;;;10.46;80.16
29247;BME280;16272;48.188;9.964;2023-02-23T09:32:50;95503.56;;;10.67;78.19
29247;BME280;16272;48.188;9.964;2023-02-23T09:35:16;95509.28;;;10.28;80.05
29247;BME280;16272;48.188;9.964;2023-02-23T09:37:45;95516.50;;;10.36;79.75
29247;BME280;16272;48.188;9.964;2023-02-23T09:40:16;95513.16;;;10.60;79.47
29247;BME280;16272;48.188;9.964;2023-02-23T09:42:51;95512.84;;;10.63;78.05
29247;BME280;16272;48.188;9.964;2023-02-23T09:45:39;95515.69;;;10.35;80.47
29247;BME280;16272;48.188;9.964;2023-02-23T09:48:26;95509.72;;;11.10;79.11
29247;BME280;16272;48.188;9.964;2023-02-23T09:50:55;95513.25;;;10.84;76.95
29247;BME280;16272;48.188;9.964;2023-02-23T09:55:58;95512.06;;;10.79;78.85
29247;BME280;16272;48.188;9.964;2023-02-23T09:58:30;95510.47;;;12.19;75.03
29247;BME280;16272;48.188;9.964;2023-02-23T10:06:47;95511.09;;;11.47;75.48
29247;BME280;16272;48.188;9.964;2023-02-23T10:11:52;95508.44;;;11.88;71.72
29247;BME280;16272;48.188;9.964;2023-02-23T10:20:26;95497.81;;;12.77;71.77
29247;BME280;16272;48.188;9.964;2023-02-23T10:22:55;95501.25;;;13.26;69.67
29247;BME280;16272;48.188;9.964;2023-02-23T10:25:26;95495.56;;;13.29;66.15
29247;BME280;16272;48.188;9.964;2023-02-23T10:27:55;95497.94;;;13.55;69.46
29247;BME280;16272;48.188;9.964;2023-02-23T10:30:25;95502.56;;;13.61;71.54
29247;BME280;16272;48.188;9.964;2023-02-23T10:32:58;95502.25;;;13.24;69.11
29247;BME280;16272;48.188;9.964;2023-02-23T10:35:28;95502.19;;;12.62;70.80
29247;BME280;16272;48.188;9.964;2023-02-23T10:37:55;95506.81;;;12.20;71.06
29247;BME280;16272;48.188;9.964;2023-02-23T10:40:23;95502.84;;;11.91;70.37
29247;BME280;16272;48.188;9.964;2023-02-23T10:42:53;95497.81;;;12.21;71.91
29247;BME280;16272;48.188;9.964;2023-02-23T10:45:22;95504.94;;;12.29;70.76
29247;BME280;16272;48.188;9.964;2023-02-23T10:47:59;95507.50;;;11.98;70.40
29247;BME280;16272;48.188;9.964;2023-02-23T10:50:26;95495.34;;;12.76;66.86
29247;BME280;16272;48.188;9.964;2023-02-23T10:52:56;95492.91;;;12.58;68.00
29247;BME280;16272;48.188;9.964;2023-02-23T10:55:26;95493.38;;;12.61;68.77
29247;BME280;16272;48.188;9.964;2023-02-23T10:58:18;95486.13;;;13.18;69.84
29247;BME280;16272;48.188;9.964;2023-02-23T11:00:56;95484.44;;;13.25;67.01
29247;BME280;16272;48.188;9.964;2023-02-23T11:05:49;95468.00;;;14.21;62.17
29247;BME280;16272;48.188;9.964;2023-02-23T11:08:40;95472.47;;;13.67;64.53
29247;BME280;16272;48.188;9.964;2023-02-23T11:13:56;95473.44;;;13.74;62.27
29247;BME280;16272;48.188;9.964;2023-02-23T11:16:37;95462.66;;;13.45;62.63
29247;BME280;16272;48.188;9.964;2023-02-23T11:19:04;95465.84;;;13.63;64.34
29247;BME280;16272;48.188;9.964;2023-02-23T11:21:38;95464.13;;;13.70;63.38
29247;BME280;16272;48.188;9.964;2023-02-23T11:24:21;95448.75;;;13.72;61.71
29247;BME280;16272;48.188;9.964;2023-02-23T11:26:50;95450.16;;;14.36;63.99
29247;BME280;16272;48.188;9.964;2023-02-23T11:29:39;95443.44;;;14.85;59.76
29247;BME280;16272;48.188;9.964;2023-02-23T11:32:06;95445.06;;;14.11;60.94
29247;BME280;16272;48.188;9.964;2023-02-23T11:34:36;95442.22;;;13.29;62.46
29247;BME280;16272;48.188;9.964;2023-02-23T11:37:25;95441.47;;;14.04;61.81
29247;BME280;16272;48.188;9.964;2023-02-23T11:39:58;95441.44;;;13.89;63.72
29247;BME280;16272;48.188;9.964;2023-02-23T11:42:27;95445.00;;;13.44;63.30
29247;BME280;16272;48.188;9.964;2023-02-23T11:45:14;95440.84;;;13.41;63.24
29247;BME280;16272;48.188;9.964;2023-02-23T11:47:44;95436.44;;;13.25;63.14
29247;BME280;16272;48.188;9.964;2023-02-23T11:50:28;95430.75;;;13.74;62.48
29247;BME280;16272;48.188;9.964;2023-02-23T11:53:05;95436.25;;;13.27;63.39
29247;BME280;16272;48.188;9.964;2023-02-23T11:55:37;95424.91;;;13.94;61.36
29247;BME280;16272;48.188;9.964;2023-02-23T11:58:07;95424.63;;;13.89;61.95
29247;BME280;16272;48.188;9.964;2023-02-23T12:00:33;95421.22;;;14.25;61.10
29247;BME280;16272;48.188;9.964;2023-02-23T12:02:59;95410.53;;;14.10;59.78
29247;BME280;16272;48.188;9.964;2023-02-23T12:05:27;95417.59;;;13.50;61.54
29247;BME280;16272;48.188;9.964;2023-02-23T12:08:09;95410.06;;;14.06;60.29
29247;BME280;16272;48.188;9.964;2023-02-23T12:10:48;95405.44;;;14.00;58.53
29247;BME280;16272;48.188;9.964;2023-02-23T12:13:29;95404.72;;;14.51;59.02
29247;BME280;16272;48.188;9.964;2023-02-23T12:16:11;95408.06;;;14.53;58.95
29247;BME280;16272;48.188;9.964;2023-02-23T12:21:28;95407.63;;;13.67;60.34
29247;BME280;16272;48.188;9.964;2023-02-23T12:24:24;95407.78;;;14.18;61.17
29247;BME280;16272;48.188;9.964;2023-02-23T12:27:14;95399.38;;;14.06;60.08
29247;BME280;16272;48.188;9.964;2023-02-23T12:35:36;95385.94;;;14.59;59.83
29247;BME280;16272;48.188;9.964;2023-02-23T12:38:24;95390.00;;;14.25;61.24
29247;BME280;16272;48.188;9.964;2023-02-23T12:40:54;95390.66;;;14.42;57.98
29247;BME280;16272;48.188;9.964;2023-02-23T12:43:36;95396.81;;;14.73;58.56
29247;BME280;16272;48.188;9.964;2023-02-23T12:46:11;95388.88;;;14.79;56.63
29247;BME280;16272;48.188;9.964;2023-02-23T12:48:59;95387.91;;;14.21;57.44
29247;BME280;16272;48.188;9.964;2023-02-23T12:53:56;95381.34;;;14.38;56.46
29247;BME280;16272;48.188;9.964;2023-02-23T13:01:58;95381.97;;;13.42;59.12
29247;BME280;16272;48.188;9.964;2023-02-23T13:12:39;95374.81;;;14.11;56.73
29247;BME280;16272;48.188;9.964;2023-02-23T13:15:24;95371.88;;;13.91;57.21
29247;BME280;16272;48.188;9.964;2023-02-23T13:18:05;95376.84;;;13.94;58.33
29247;BME280;16272;48.188;9.964;2023-02-23T13:31:02;95359.31;;;14.66;57.24
29247;BME280;16272;48.188;9.964;2023-02-23T13:33:28;95356.56;;;15.17;54.87
29247;BME280;16272;48.188;9.964;2023-02-23T13:36:01;95352.31;;;14.65;54.73
29247;BME280;16272;48.188;9.964;2023-02-23T13:38:55;95352.34;;;15.51;55.21
29247;BME280;16272;48.188;9.964;2023-02-23T13:50:14;95344.91;;;15.75;53.80
29247;BME280;16272;48.188;9.964;2023-02-23T13:52:43;95339.38;;;15.76;54.42
29247;BME280;16272;48.188;9.964;2023-02-23T13:55:46;95335.50;;;15.79;54.91
29247;BME280;16272;48.188;9.964;2023-02-23T13:58:14;95342.41;;;15.45;54.73
29247;BME280;16272;48.188;9.964;2023-02-23T14:00:41;95346.00;;;14.87;55.23
29247;BME280;16272;48.188;9.964;2023-02-23T14:03:22;95353.31;;;15.00;55.13
29247;BME280;16272;48.188;9.964;2023-02-23T14:05:51;95344.03;;;15.68;51.67
29247;BME280;16272;48.188;9.964;2023-02-23T14:08:25;95338.69;;;15.96;51.22
29247;BME280;16272;48.188;9.964;2023-02-23T14:10:52;95351.66;;;14.99;51.27
29247;BME280;16272;48.188;9.964;2023-02-23T14:15:49;95330.31;;;15.28;50.69
29247;BME280;16272;48.188;9.964;2023-02-23T14:18:32;95336.41;;;15.65;53.15
29247;BME280;16272;48.188;9.964;2023-02-23T14:29:25;95333.56;;;14.13;53.62
29247;BME280;16272;48.188;9.964;2023-02-23T14:31:58;95343.22;;;14.14;56.05
29247;BME280;16272;48.188;9.964;2023-02-23T14:34:59;95338.63;;;14.23;54.62
29247;BME280;16272;48.188;9.964;2023-02-23T14:37:34;95342.94;;;14.09;55.89
29247;BME280;16272;48.188;9.964;2023-02-23T14:40:09;95339.69;;;14.44;54.17
29247;BME280;16272;48.188;9.964;2023-02-23T14:42:37;95338.16;;;14.20;55.06
29247;BME280;16272;48.188;9.964;2023-02-23T14:45:06;95338.72;;;14.81;54.48
29247;BME280;16272;48.188;9.964;2023-02-23T14:47:44;95332.28;;;14.09;54.90
29247;BME280;16272;48.188;9.964;2023-02-23T14:50:16;95333.09;;;14.10;54.21
29247;BME280;16272;48.188;9.964;2023-02-23T14:52:44;95337.69;;;13.86;54.35
29247;BME280;16272;48.188;9.964;2023-02-23T14:57:37;95332.59;;;14.36;54.37
29247;BME280;16272;48.188;9.964;2023-02-23T15:00:24;95334.38;;;14.80;55.36
29247;BME280;16272;48.188;9.964;2023-02-23T15:02:58;95332.25;;;14.91;54.27
29247;BME280;16272;48.188;9.964;2023-02-23T15:05:34;95330.31;;;14.63;53.95
29247;BME280;16272;48.188;9.964;2023-02-23T15:08:04;95331.94;;;14.49;54.02
29247;BME280;16272;48.188;9.964;2023-02-23T15:12:56;95333.22;;;14.68;53.61
29247;BME280;16272;48.188;9.964;2023-02-23T15:15:23;95333.63;;;13.90;54.81
29247;BME280;16272;48.188;9.964;2023-02-23T15:17:54;95342.25;;;14.52;55.21